createdAt,value
2018-11-23T00:02:07.849Z,102280.55
2018-11-23T00:04:38.106Z,102275.68
2018-11-23T00:07:08.321Z,102280.06
2018-11-23T00:12:45.208Z,102277.42
2018-11-23T00:17:56.692Z,102276.02
2018-11-23T00:20:28.143Z,102272.94
2018-11-23T00:25:54.319Z,102269.04
2018-11-23T00:31:26.102Z,102263.61
2018-11-23T00:37:10.504Z,102266.60
2018-11-23T00:42:23.214Z,102258.07
2018-11-23T00:47:35.588Z,102263.27
2018-11-23T00:53:02.239Z,102261.14
2018-11-23T00:58:28.097Z,102256.78
2018-11-23T01:00:58.339Z,102265.62
2018-11-23T01:03:28.556Z,102258.55
2018-11-23T01:08:54.445Z,102259.46
2018-11-23T01:14:20.175Z,102252.91
2018-11-23T01:19:46.063Z,102256.00
2018-11-23T01:25:13.054Z,102242.81
2018-11-23T01:30:39.783Z,102248.19
2018-11-23T01:33:10.043Z,102250.36
2018-11-23T01:35:40.250Z,102251.24
2018-11-23T01:41:05.518Z,102245.95
2018-11-23T01:43:35.800Z,102246.39
2018-11-23T01:46:06.070Z,102240.25
2018-11-23T01:48:36.329Z,102239.78
2018-11-23T01:51:25.761Z,102231.42
2018-11-23T01:56:51.900Z,102238.83
2018-11-23T02:02:22.748Z,102237.57
2018-11-23T02:04:53.001Z,102239.80
2018-11-23T02:07:23.236Z,102232.25
2018-11-23T02:12:49.074Z,102234.53
2018-11-23T02:18:16.179Z,102224.38
2018-11-23T02:23:41.323Z,102227.06
2018-11-23T02:29:06.893Z,102218.23
2018-11-23T02:31:38.620Z,102211.19
2018-11-23T02:34:08.975Z,102212.61
2018-11-23T02:36:39.218Z,102206.45
2018-11-23T02:39:10.033Z,102209.55
2018-11-23T02:44:35.280Z,102201.22
2018-11-23T02:50:00.283Z,102195.94
2018-11-23T02:52:30.542Z,102195.08
2018-11-23T02:55:00.752Z,102197.72
2018-11-23T03:00:14.751Z,102190.30
2018-11-23T03:02:45.027Z,102199.97
2018-11-23T03:05:17.080Z,102206.56
2018-11-23T03:07:47.308Z,102203.44
2018-11-23T03:10:18.057Z,102196.89
2018-11-23T03:13:07.189Z,102199.05
2018-11-23T03:15:56.351Z,102187.65
2018-11-23T03:18:37.870Z,102195.53
2018-11-23T03:21:08.128Z,102192.50
2018-11-23T03:23:38.339Z,102185.45
2018-11-23T03:26:08.554Z,102187.20
2018-11-23T03:34:28.280Z,102186.30
2018-11-23T03:36:58.572Z,102187.58
2018-11-23T03:39:34.037Z,102177.43
2018-11-23T03:45:00.412Z,102178.25
2018-11-23T03:47:30.656Z,102183.13
2018-11-23T03:50:00.881Z,102176.02
2018-11-23T03:55:26.776Z,102164.54
2018-11-23T03:57:57.019Z,102163.22
2018-11-23T04:00:27.243Z,102166.73
2018-11-23T04:03:09.063Z,102160.57
2018-11-23T04:05:39.278Z,102157.95
2018-11-23T04:10:52.071Z,102165.37
2018-11-23T04:13:22.336Z,102156.96
2018-11-23T04:15:52.577Z,102156.98
2018-11-23T04:21:17.984Z,102157.88
2018-11-23T04:23:48.236Z,102157.94
2018-11-23T04:26:24.617Z,102156.18
2018-11-23T04:28:48.689Z,102156.58
2018-11-23T04:31:18.932Z,102161.84
2018-11-23T04:33:49.168Z,102159.69
2018-11-23T04:39:14.964Z,102152.70
2018-11-23T04:41:46.358Z,102150.55
2018-11-23T04:44:15.514Z,102144.80
2018-11-23T04:46:46.148Z,102146.58
2018-11-23T04:49:16.361Z,102141.72
2018-11-23T04:51:46.682Z,102141.70
2018-11-23T04:54:28.545Z,102139.95
2018-11-23T04:59:53.755Z,102136.02
2018-11-23T05:02:43.243Z,102137.77
2018-11-23T05:05:32.417Z,102132.47
2018-11-23T05:10:57.916Z,102131.16
2018-11-23T05:16:23.879Z,102125.91
2018-11-23T05:21:48.945Z,102121.91
2018-11-23T05:27:14.852Z,102115.64
2018-11-23T05:29:45.117Z,102119.23
2018-11-23T05:32:15.327Z,102115.28
2018-11-23T05:37:40.710Z,102122.70
2018-11-23T05:40:13.155Z,102122.23
2018-11-23T05:42:43.387Z,102128.86
2018-11-23T05:45:15.582Z,102123.53
2018-11-23T05:47:46.014Z,102121.30
2018-11-23T05:50:35.259Z,102119.95
2018-11-23T05:53:05.477Z,102117.30
2018-11-23T05:55:35.759Z,102116.78
2018-11-23T05:58:05.959Z,102125.13
2018-11-23T06:03:17.866Z,102118.45
2018-11-23T06:05:48.088Z,102118.45
2018-11-23T06:11:00.544Z,102112.70
2018-11-23T06:16:26.021Z,102107.86
2018-11-23T06:18:56.327Z,102112.74
2018-11-23T06:21:45.191Z,102103.91
2018-11-23T06:24:15.452Z,102099.06
2018-11-23T06:26:57.339Z,102099.95
2018-11-23T06:29:27.578Z,102096.91
2018-11-23T06:31:57.795Z,102100.83
2018-11-23T06:34:28.002Z,102097.73
2018-11-23T06:36:58.269Z,102099.54
2018-11-23T06:39:28.513Z,102107.89
2018-11-23T06:41:58.727Z,102103.48
2018-11-23T06:44:47.898Z,102109.65
2018-11-23T06:47:18.115Z,102107.01
2018-11-23T06:52:44.277Z,102109.20
2018-11-23T07:00:40.678Z,102108.75
2018-11-23T07:03:29.888Z,102111.80
2018-11-23T07:06:00.475Z,102117.56
2018-11-23T07:08:30.745Z,102110.04
2018-11-23T07:11:02.232Z,102108.77
2018-11-23T07:13:33.407Z,102108.76
2018-11-23T07:16:03.636Z,102101.31
2018-11-23T07:18:33.862Z,102106.98
2018-11-23T07:21:04.078Z,102109.64
2018-11-23T07:26:29.530Z,102116.27
2018-11-23T07:28:59.767Z,102116.61
2018-11-23T07:31:30.043Z,102116.59
2018-11-23T07:34:00.305Z,102111.70
2018-11-23T07:36:30.571Z,102113.02
2018-11-23T07:39:08.459Z,102116.55
2018-11-23T07:42:16.585Z,102123.16
2018-11-23T07:44:46.806Z,102115.21
2018-11-23T07:47:17.210Z,102115.56
2018-11-23T07:49:47.878Z,102117.23
2018-11-23T07:52:18.479Z,102112.75
2018-11-23T07:57:43.852Z,102121.41
2018-11-23T08:03:15.779Z,102115.18
2018-11-23T08:08:41.667Z,102112.55
2018-11-23T08:13:59.635Z,102112.52
2018-11-23T08:16:29.883Z,102117.34
2018-11-23T08:19:00.088Z,102114.71
2018-11-23T08:21:30.330Z,102105.45
2018-11-23T08:24:00.563Z,102107.20
2018-11-23T08:26:30.878Z,102099.32
2018-11-23T08:29:01.074Z,102101.97
2018-11-23T08:34:27.138Z,102101.09
2018-11-23T08:40:11.311Z,102101.19
2018-11-23T08:45:37.021Z,102106.20
2018-11-23T08:50:48.530Z,102100.41
2018-11-23T08:53:18.768Z,102103.05
2018-11-23T08:55:49.093Z,102101.67
2018-11-23T08:58:19.437Z,102099.44
2018-11-23T09:00:49.751Z,102047.55
2018-11-23T09:03:20.031Z,102089.60
2018-11-23T09:05:50.296Z,102087.87
2018-11-23T09:08:20.877Z,102084.77
2018-11-23T09:10:51.355Z,102086.50
2018-11-23T09:13:21.894Z,102087.36
2018-11-23T09:15:52.390Z,102091.17
2018-11-23T09:18:23.016Z,102092.93
2018-11-23T09:20:53.622Z,102095.63
2018-11-23T09:23:24.335Z,102088.64
2018-11-23T09:25:54.883Z,102094.90
2018-11-23T09:31:20.568Z,102088.12
2018-11-23T09:33:51.452Z,102080.14
2018-11-23T09:36:40.844Z,102084.53
2018-11-23T09:39:11.758Z,102087.05
2018-11-23T09:41:42.224Z,102083.95
2018-11-23T09:44:13.043Z,102090.92
2018-11-23T09:47:02.449Z,102086.38
2018-11-23T09:49:33.261Z,102086.81
2018-11-23T09:52:03.867Z,102085.66
2018-11-23T09:57:29.699Z,102076.61
2018-11-23T10:00:00.641Z,102072.09
2018-11-23T10:02:43.138Z,102064.50
2018-11-23T10:05:14.423Z,102061.33
2018-11-23T10:08:05.185Z,102061.80
2018-11-23T10:10:35.943Z,102059.95
2018-11-23T10:13:06.566Z,102065.11
2018-11-23T10:15:37.701Z,102060.21
2018-11-23T10:18:08.479Z,102053.20
2018-11-23T10:20:39.373Z,102060.33
2018-11-23T10:23:09.860Z,102066.52
2018-11-23T10:28:41.919Z,102060.81
2018-11-23T10:31:31.320Z,102057.83
2018-11-23T10:34:20.653Z,102052.38
2018-11-23T10:37:10.147Z,102050.59
2018-11-23T10:39:40.667Z,102044.47
2018-11-23T10:42:30.046Z,102038.63
2018-11-23T10:45:00.636Z,102035.50
2018-11-23T10:47:31.395Z,102022.64
2018-11-23T10:50:01.924Z,102021.84
2018-11-23T10:52:32.551Z,102020.56
2018-11-23T10:55:26.311Z,102008.55
2018-11-23T10:57:57.231Z,102011.58
2018-11-23T11:00:46.285Z,102010.57
2018-11-23T11:03:35.376Z,102006.14
2018-11-23T11:06:28.001Z,102006.59
2018-11-23T11:11:41.091Z,102003.52
2018-11-23T11:14:11.498Z,101996.96
2018-11-23T11:19:43.696Z,101990.22
2018-11-23T11:25:34.577Z,101993.30
2018-11-23T11:31:25.096Z,101985.95
2018-11-23T11:33:56.172Z,101980.19
2018-11-23T11:36:45.546Z,101977.83
2018-11-23T11:39:18.212Z,101973.43
2018-11-23T11:42:05.840Z,101978.20
2018-11-23T11:44:36.582Z,101968.59
2018-11-23T11:47:07.428Z,101959.59
2018-11-23T11:49:38.123Z,101960.50
2018-11-23T11:52:08.724Z,101962.59
2018-11-23T11:54:39.349Z,101971.31
2018-11-23T11:57:09.920Z,101957.47
2018-11-23T11:59:40.475Z,101958.71
2018-11-23T12:02:29.840Z,101961.70
2018-11-23T12:07:55.766Z,101957.02
2018-11-23T12:10:27.310Z,101960.04
2018-11-23T12:12:57.801Z,101953.16
2018-11-23T12:15:28.609Z,101958.71
2018-11-23T12:17:59.146Z,101951.08
2018-11-23T12:20:29.755Z,101947.61
2018-11-23T12:23:00.203Z,101947.30
2018-11-23T12:25:31.034Z,101941.30
2018-11-23T12:28:20.387Z,101940.54
2018-11-23T12:33:52.884Z,101935.83
2018-11-23T12:36:23.808Z,101927.75
2018-11-23T12:39:13.195Z,101925.16
2018-11-23T12:41:44.131Z,101924.84
2018-11-23T12:44:14.676Z,101927.39
2018-11-23T12:46:56.567Z,101921.63
2018-11-23T12:49:27.129Z,101924.34
2018-11-23T12:54:59.083Z,101917.25
2018-11-23T12:57:29.808Z,101913.33
2018-11-23T13:00:37.833Z,101914.63
2018-11-23T13:05:52.227Z,101931.42
2018-11-23T13:08:22.890Z,101915.56
2018-11-23T13:11:05.796Z,101905.84
2018-11-23T13:16:18.340Z,101898.34
2018-11-23T13:18:49.242Z,101898.28
2018-11-23T13:21:20.031Z,101895.52
2018-11-23T13:23:50.567Z,101889.17
2018-11-23T13:26:21.104Z,101896.68
2018-11-23T13:28:51.729Z,101894.78
2018-11-23T13:31:22.303Z,101896.95
2018-11-23T13:33:53.747Z,101888.09
2018-11-23T13:36:24.353Z,101888.55
2018-11-23T13:42:02.152Z,101886.17
2018-11-23T13:47:34.427Z,101885.14
2018-11-23T13:50:05.075Z,101880.23
2018-11-23T13:52:35.604Z,101878.12
2018-11-23T13:55:06.442Z,101878.41
2018-11-23T13:57:37.186Z,101879.98
2018-11-23T14:00:21.719Z,101872.73
2018-11-23T14:02:52.379Z,101882.70
2018-11-23T14:08:24.758Z,101873.27
2018-11-23T14:11:14.170Z,101876.48
2018-11-23T14:13:44.733Z,101873.05
2018-11-23T14:16:15.391Z,101870.22
2018-11-23T14:19:05.052Z,101869.86
2018-11-23T14:21:47.109Z,101865.06
2018-11-23T14:26:59.798Z,101853.42
2018-11-23T14:29:30.402Z,101858.27
2018-11-23T14:32:19.960Z,101854.41
2018-11-23T14:34:50.440Z,101862.06
2018-11-23T14:37:20.995Z,101858.56
2018-11-23T14:39:51.500Z,101856.33
2018-11-23T14:42:33.837Z,101851.95
2018-11-23T14:45:04.451Z,101858.11
2018-11-23T14:47:34.984Z,101850.34
2018-11-23T14:50:06.105Z,101848.80
2018-11-23T14:52:36.719Z,101845.77
2018-11-23T14:55:08.560Z,101846.54
2018-11-23T15:00:41.058Z,101840.45
2018-11-23T15:03:30.470Z,101840.45
2018-11-23T15:06:00.986Z,101845.23
2018-11-23T15:08:31.539Z,101841.30
2018-11-23T15:11:02.047Z,101840.78
2018-11-23T15:13:51.428Z,101842.03
2018-11-23T15:16:22.115Z,101837.82
2018-11-23T15:18:52.777Z,101834.35
2018-11-23T15:21:42.147Z,101830.16
2018-11-23T15:24:24.025Z,101831.86
2018-11-23T15:26:54.589Z,101836.81
2018-11-23T15:29:25.199Z,101829.39
2018-11-23T15:31:55.928Z,101828.59
2018-11-23T15:34:26.830Z,101837.79
2018-11-23T15:36:57.367Z,101821.28
2018-11-23T15:39:46.768Z,101821.12
2018-11-23T15:42:17.418Z,101818.09
2018-11-23T15:44:48.062Z,101821.17
2018-11-23T15:47:37.398Z,101817.99
2018-11-23T15:50:09.661Z,101820.22
2018-11-23T15:52:40.482Z,101819.77
2018-11-23T15:55:14.389Z,101818.47
2018-11-23T15:57:45.534Z,101816.21
2018-11-23T16:00:18.637Z,101816.32
2018-11-23T16:05:49.410Z,101817.44
2018-11-23T16:08:31.660Z,101809.53
2018-11-23T16:11:02.164Z,101811.73
2018-11-23T16:13:32.838Z,101808.83
2018-11-23T16:16:03.425Z,101808.40
2018-11-23T16:18:33.943Z,101807.50
2018-11-23T16:21:04.486Z,101798.64
2018-11-23T16:23:35.067Z,101793.51
2018-11-23T16:29:07.483Z,101794.83
2018-11-23T16:31:38.124Z,101788.42
2018-11-23T16:34:08.638Z,101787.41
2018-11-23T16:36:39.240Z,101789.14
2018-11-23T16:39:28.740Z,101791.34
2018-11-23T16:42:18.111Z,101782.06
2018-11-23T16:44:49.040Z,101777.66
2018-11-23T16:47:19.654Z,101778.52
2018-11-23T16:49:50.306Z,101777.72
2018-11-23T16:52:21.185Z,101776.00
2018-11-23T16:54:51.658Z,101771.26
2018-11-23T16:57:22.387Z,101774.33
2018-11-23T17:00:12.012Z,101778.70
2018-11-23T17:02:42.791Z,101779.09
2018-11-23T17:07:56.871Z,101777.88
2018-11-23T17:10:33.891Z,101773.86
2018-11-23T17:13:04.144Z,101775.60
2018-11-23T17:15:34.415Z,101778.67
2018-11-23T17:18:23.578Z,101774.67
2018-11-23T17:23:49.346Z,101771.97
2018-11-23T17:29:08.700Z,101763.57
2018-11-23T17:31:38.958Z,101764.02
2018-11-23T17:34:09.291Z,101768.02
2018-11-23T17:36:39.518Z,101756.63
2018-11-23T17:39:10.159Z,101752.66
2018-11-23T17:41:59.323Z,101752.23
2018-11-23T17:44:29.568Z,101747.75
2018-11-23T17:49:54.597Z,101750.72
2018-11-23T17:52:24.893Z,101746.66
2018-11-23T17:54:55.135Z,101750.88
2018-11-23T17:57:25.481Z,101749.98
2018-11-23T17:59:55.725Z,101757.45
2018-11-23T18:02:28.236Z,101751.28
2018-11-23T18:07:40.015Z,101756.16
2018-11-23T18:10:13.034Z,101756.91
2018-11-23T18:12:43.590Z,101753.23
2018-11-23T18:15:36.836Z,101750.53
2018-11-23T18:21:03.884Z,101748.14
2018-11-23T18:23:34.130Z,101743.47
2018-11-23T18:26:04.371Z,101740.39
2018-11-23T18:28:34.648Z,101747.45
2018-11-23T18:31:04.881Z,101741.30
2018-11-23T18:33:54.063Z,101739.16
2018-11-23T18:36:24.364Z,101739.58
2018-11-23T18:38:54.674Z,101727.31
2018-11-23T18:41:24.927Z,101723.31
2018-11-23T18:46:50.438Z,101723.52
2018-11-23T18:49:20.747Z,101716.75
2018-11-23T18:51:51.031Z,101710.52
2018-11-23T18:54:21.272Z,101702.56
2018-11-23T18:56:52.534Z,101704.34
2018-11-23T18:59:22.003Z,101702.11
2018-11-23T19:01:52.315Z,101700.34
2018-11-23T19:07:04.428Z,101692.03
2018-11-23T19:09:34.699Z,101682.78
2018-11-23T19:12:04.972Z,101679.17
2018-11-23T19:14:35.269Z,101683.14
2018-11-23T19:17:05.840Z,101674.32
2018-11-23T19:19:36.088Z,101675.25
2018-11-23T19:22:06.774Z,101677.15
2018-11-23T19:24:37.007Z,101675.44
2018-11-23T19:27:07.545Z,101669.31
2018-11-23T19:29:37.935Z,101672.41
2018-11-23T19:32:08.295Z,101668.64
2018-11-23T19:37:19.964Z,101668.64
2018-11-23T19:39:50.309Z,101671.44
2018-11-23T19:42:20.563Z,101670.88
2018-11-23T19:44:56.923Z,101660.19
2018-11-23T19:47:27.175Z,101665.83
2018-11-23T19:49:57.452Z,101658.30
2018-11-23T19:52:27.745Z,101657.42
2018-11-23T19:54:57.982Z,101666.24
2018-11-23T19:57:28.207Z,101656.08
2018-11-23T19:59:58.458Z,101654.33
2018-11-23T20:05:09.839Z,101642.44
2018-11-23T20:07:40.043Z,101638.97
2018-11-23T20:10:29.270Z,101637.13
2018-11-23T20:12:59.813Z,101637.13
2018-11-23T20:15:30.092Z,101630.89
2018-11-23T20:18:00.335Z,101631.41
2018-11-23T20:23:26.248Z,101621.40
2018-11-23T20:25:56.494Z,101621.56
2018-11-23T20:28:26.720Z,101618.08
2018-11-23T20:30:56.990Z,101613.55
2018-11-23T20:33:46.204Z,101609.20
2018-11-23T20:36:16.504Z,101606.08
2018-11-23T20:38:46.752Z,101604.70
2018-11-23T20:41:17.111Z,101614.38
2018-11-23T20:43:47.352Z,101609.40
2018-11-23T20:46:36.513Z,101612.27
2018-11-23T20:52:07.646Z,101609.31
2018-11-23T20:54:37.904Z,101602.78
2018-11-23T20:57:08.166Z,101604.87
2018-11-23T20:59:39.060Z,101600.27
2018-11-23T21:02:08.766Z,101596.14
2018-11-23T21:04:39.057Z,101594.20
2018-11-23T21:07:09.396Z,101597.22
2018-11-23T21:15:02.979Z,101588.17
2018-11-23T21:17:39.542Z,101580.61
2018-11-23T21:20:09.797Z,101578.58
2018-11-23T21:22:40.166Z,101581.80
2018-11-23T21:25:11.235Z,101585.91
2018-11-23T21:28:00.427Z,101585.97
2018-11-23T21:30:30.681Z,101578.20
2018-11-23T21:33:00.909Z,101580.52
2018-11-23T21:35:31.156Z,101581.03
2018-11-23T21:38:01.363Z,101585.48
2018-11-23T21:40:31.608Z,101581.72
2018-11-23T21:43:01.831Z,101583.49
2018-11-23T21:45:32.068Z,101582.65
2018-11-23T21:48:02.293Z,101576.00
2018-11-23T21:50:32.498Z,101574.20
2018-11-23T21:53:02.744Z,101565.74
2018-11-23T21:58:28.582Z,101564.42
2018-11-23T22:01:09.851Z,101558.19
2018-11-23T22:03:40.088Z,101559.52
2018-11-23T22:06:10.340Z,101553.32
2018-11-23T22:08:40.575Z,101556.39
2018-11-23T22:11:29.999Z,101549.73
2018-11-23T22:14:19.181Z,101552.45
2018-11-23T22:16:49.435Z,101556.05
2018-11-23T22:19:19.688Z,101549.11
2018-11-23T22:22:01.889Z,101550.37
2018-11-23T22:24:32.106Z,101544.20
2018-11-23T22:27:02.363Z,101540.66
2018-11-23T22:29:32.697Z,101537.61
2018-11-23T22:32:02.961Z,101533.25
2018-11-23T22:34:33.235Z,101532.77
2018-11-23T22:37:03.466Z,101536.44
2018-11-23T22:39:46.415Z,101543.42
2018-11-23T22:42:16.648Z,101537.58
2018-11-23T22:44:46.871Z,101538.39
2018-11-23T22:47:17.108Z,101533.85
2018-11-23T22:52:42.978Z,101529.84
2018-11-23T22:58:27.852Z,101522.69
2018-11-23T23:01:16.746Z,101537.22
2018-11-23T23:03:47.000Z,101538.90
2018-11-23T23:06:17.247Z,101530.38
2018-11-23T23:09:06.193Z,101534.38
2018-11-23T23:14:18.717Z,101520.66
2018-11-23T23:16:48.979Z,101517.39
2018-11-23T23:19:19.286Z,101519.52
2018-11-23T23:21:49.543Z,101518.47
2018-11-23T23:24:19.834Z,101518.96
2018-11-23T23:29:44.913Z,101510.38
2018-11-23T23:35:11.360Z,101507.47
2018-11-23T23:37:42.088Z,101500.92
2018-11-23T23:40:21.363Z,101499.62
2018-11-23T23:45:46.431Z,101495.48
2018-11-23T23:51:18.342Z,101483.28
2018-11-23T23:56:43.273Z,101472.75
